createdAt,value
2022-07-29T00:04:07.192Z,4.40
2022-07-29T00:19:08.713Z,4.60
2022-07-29T00:34:10.189Z,3.77
2022-07-29T00:49:11.726Z,4.03
2022-07-29T01:04:13.668Z,3.70
2022-07-29T01:19:16.046Z,3.77
2022-07-29T01:34:18.047Z,3.30
2022-07-29T01:49:19.953Z,3.50
2022-07-29T02:04:29.076Z,3.30
2022-07-29T02:19:31.557Z,3.00
2022-07-29T02:34:33.085Z,2.93
2022-07-29T02:49:34.592Z,2.80
2022-07-29T03:04:36.114Z,2.23
2022-07-29T03:19:37.633Z,2.60
2022-07-29T03:34:39.184Z,3.40
2022-07-29T03:49:40.697Z,2.60
2022-07-29T04:04:42.216Z,3.23
2022-07-29T04:19:43.698Z,2.43
2022-07-29T04:34:45.192Z,2.63
2022-07-29T04:49:46.684Z,1.83
2022-07-29T05:04:48.167Z,2.30
2022-07-29T05:19:49.801Z,2.13
2022-07-29T05:34:51.911Z,2.00
2022-07-29T05:49:53.501Z,2.20
2022-07-29T06:04:55.052Z,2.20
2022-07-29T06:19:56.546Z,2.53
2022-07-29T06:35:24.437Z,1.80
2022-07-29T06:50:19.499Z,2.13
2022-07-29T07:05:21.001Z,2.03
2022-07-29T07:20:22.483Z,2.30
2022-07-29T07:35:26.898Z,2.73
2022-07-29T07:50:28.383Z,3.17
2022-07-29T08:05:30.030Z,3.00
2022-07-29T08:20:31.520Z,3.00
2022-07-29T08:35:35.446Z,2.97
2022-07-29T08:50:37.984Z,2.40
2022-07-29T09:05:42.026Z,2.20
2022-07-29T09:20:45.304Z,3.20
2022-07-29T09:35:56.419Z,2.50
2022-07-29T09:50:58.762Z,2.50
2022-07-29T10:06:00.259Z,3.43
2022-07-29T10:21:01.751Z,2.87
2022-07-29T10:36:03.247Z,2.60
2022-07-29T10:51:04.731Z,2.33
2022-07-29T11:06:08.793Z,3.23
2022-07-29T11:21:11.511Z,2.33
2022-07-29T11:36:16.582Z,2.47
2022-07-29T11:51:18.543Z,2.20
2022-07-29T12:06:20.953Z,2.50
2022-07-29T12:21:25.576Z,2.20
2022-07-29T12:36:27.378Z,2.63
2022-07-29T12:51:28.866Z,2.60
2022-07-29T13:06:30.771Z,2.63
2022-07-29T13:21:32.254Z,3.20
2022-07-29T13:36:33.755Z,2.60
2022-07-29T13:51:35.247Z,2.87
2022-07-29T14:06:36.733Z,2.93
2022-07-29T14:21:41.997Z,3.40
2022-07-29T14:36:43.473Z,3.03
2022-07-29T14:51:44.954Z,2.87
2022-07-29T15:06:46.441Z,3.33
2022-07-29T15:21:59.606Z,3.00
2022-07-29T15:37:01.404Z,3.13
2022-07-29T15:52:02.885Z,3.53
2022-07-29T16:07:04.362Z,3.17
2022-07-29T16:22:05.861Z,2.70
2022-07-29T16:37:07.352Z,2.60
2022-07-29T16:52:08.846Z,4.50
2022-07-29T17:07:10.329Z,3.63
2022-07-29T17:22:18.796Z,3.83
2022-07-29T17:37:20.683Z,3.13
2022-07-29T17:52:22.177Z,3.10
2022-07-29T18:07:23.666Z,3.87
2022-07-29T18:22:25.151Z,3.10
2022-07-29T18:38:00.871Z,3.10
2022-07-29T18:52:48.111Z,3.00
2022-07-29T19:07:49.646Z,3.00
2022-07-29T19:22:51.131Z,3.27
2022-07-29T19:37:52.618Z,3.40
2022-07-29T19:52:54.101Z,3.23
2022-07-29T20:07:55.581Z,3.17
2022-07-29T20:22:57.070Z,3.57
2022-07-29T20:37:58.554Z,3.20
2022-07-29T20:53:01.353Z,3.80
2022-07-29T21:08:02.838Z,3.60
2022-07-29T21:23:04.323Z,3.20
2022-07-29T21:38:13.313Z,3.73
2022-07-29T21:53:15.970Z,3.40
2022-07-29T22:08:17.528Z,3.43
2022-07-29T22:23:19.027Z,3.60
2022-07-29T22:38:20.509Z,3.40
2022-07-29T22:53:21.994Z,3.10
2022-07-29T23:08:23.473Z,3.53
2022-07-29T23:23:24.954Z,3.23
2022-07-29T23:38:33.708Z,3.30
2022-07-29T23:53:35.270Z,3.87
